createdAt,value
2023-06-09T00:05:58.042Z,4.47
2023-06-09T00:08:26.972Z,4.20
2023-06-09T00:10:55.040Z,4.93
2023-06-09T00:13:22.565Z,4.18
2023-06-09T00:15:50.160Z,4.20
2023-06-09T00:18:18.207Z,4.25
2023-06-09T00:20:55.400Z,4.40
2023-06-09T00:23:29.921Z,4.45
2023-06-09T00:25:59.511Z,4.22
2023-06-09T00:28:27.178Z,3.95
2023-06-09T00:30:55.726Z,4.45
2023-06-09T00:33:23.005Z,4.70
2023-06-09T00:35:53.771Z,4.18
2023-06-09T00:38:21.524Z,4.00
2023-06-09T00:40:51.464Z,4.93
2023-06-09T00:43:18.890Z,4.00
2023-06-09T00:45:46.329Z,3.87
2023-06-09T00:48:14.338Z,4.72
2023-06-09T00:50:41.969Z,4.25
2023-06-09T00:53:11.592Z,3.85
2023-06-09T00:55:41.256Z,3.67
2023-06-09T00:58:11.170Z,3.85
2023-06-09T01:00:40.273Z,3.70
2023-06-09T01:03:11.667Z,4.28
2023-06-09T01:05:40.264Z,3.88
2023-06-09T01:08:16.918Z,4.38
2023-06-09T01:10:50.782Z,4.88
2023-06-09T01:13:25.614Z,4.00
2023-06-09T01:15:57.899Z,3.90
2023-06-09T01:18:26.425Z,3.80
2023-06-09T01:23:37.815Z,3.67
2023-06-09T01:26:08.294Z,3.75
2023-06-09T01:28:39.376Z,3.58
2023-06-09T01:31:09.421Z,3.70
2023-06-09T01:33:37.993Z,4.43
2023-06-09T01:36:07.375Z,4.00
2023-06-09T01:38:34.521Z,4.13
2023-06-09T01:41:02.093Z,3.53
2023-06-09T01:43:30.739Z,4.10
2023-06-09T01:45:58.152Z,3.95
2023-06-09T01:48:32.039Z,4.88
2023-06-09T01:51:04.361Z,4.68
2023-06-09T01:53:35.823Z,3.97
2023-06-09T01:56:08.392Z,4.00
2023-06-09T01:58:42.721Z,4.22
2023-06-09T02:01:12.169Z,4.40
2023-06-09T02:03:45.936Z,4.65
2023-06-09T02:06:17.852Z,4.53
2023-06-09T02:08:51.332Z,4.55
2023-06-09T02:11:22.747Z,4.50
2023-06-09T02:13:57.504Z,5.13
2023-06-09T02:16:26.269Z,4.45
2023-06-09T02:18:54.287Z,4.60
2023-06-09T02:21:22.021Z,4.97
2023-06-09T02:23:49.555Z,5.45
2023-06-09T02:26:16.864Z,5.17
2023-06-09T02:28:43.952Z,5.15
2023-06-09T02:31:12.905Z,4.90
2023-06-09T02:36:07.392Z,4.72
2023-06-09T02:38:35.381Z,5.30
2023-06-09T02:41:02.702Z,4.55
2023-06-09T02:43:30.096Z,5.18
2023-06-09T02:45:57.515Z,5.07
2023-06-09T02:48:25.905Z,4.78
2023-06-09T02:53:20.790Z,5.00
2023-06-09T02:55:48.218Z,5.20
2023-06-09T02:58:15.620Z,4.55
2023-06-09T03:00:48.302Z,5.27
2023-06-09T03:03:15.678Z,4.60
2023-06-09T03:05:45.569Z,4.77
2023-06-09T03:08:12.856Z,4.47
2023-06-09T03:10:40.748Z,4.82
2023-06-09T03:13:08.132Z,5.00
2023-06-09T03:15:35.516Z,5.20
2023-06-09T03:18:02.615Z,5.05
2023-06-09T03:20:30.168Z,5.80
2023-06-09T03:22:59.374Z,5.70
2023-06-09T03:25:26.946Z,5.78
2023-06-09T03:27:54.997Z,5.75
2023-06-09T03:30:22.432Z,5.50
2023-06-09T03:32:49.669Z,5.45
2023-06-09T03:35:17.067Z,5.88
2023-06-09T03:37:44.142Z,6.10
2023-06-09T03:40:13.959Z,5.80
2023-06-09T03:42:41.037Z,5.78
2023-06-09T03:45:09.398Z,5.20
2023-06-09T03:47:38.902Z,5.38
2023-06-09T03:50:10.148Z,5.05
2023-06-09T03:52:40.926Z,5.00
2023-06-09T03:55:08.969Z,5.30
2023-06-09T03:57:37.471Z,4.90
2023-06-09T04:00:06.533Z,6.18
2023-06-09T04:02:33.988Z,6.68
2023-06-09T04:05:03.382Z,7.57
2023-06-09T04:09:58.969Z,6.75
2023-06-09T04:12:26.103Z,6.93
2023-06-09T04:14:54.720Z,6.43
2023-06-09T04:17:23.517Z,5.45
2023-06-09T04:19:52.394Z,5.97
2023-06-09T04:22:20.267Z,5.80
2023-06-09T04:24:47.955Z,6.32
2023-06-09T04:27:17.155Z,4.88
2023-06-09T04:29:46.976Z,5.22
2023-06-09T04:32:18.818Z,6.55
2023-06-09T04:34:47.910Z,5.97
2023-06-09T04:37:17.206Z,5.00
2023-06-09T04:39:54.603Z,5.10
2023-06-09T04:42:23.764Z,5.72
2023-06-09T04:44:52.055Z,5.32
2023-06-09T04:47:21.648Z,5.23
2023-06-09T04:50:04.065Z,5.25
2023-06-09T04:52:31.550Z,5.22
2023-06-09T04:55:00.544Z,4.75
2023-06-09T04:59:58.465Z,6.07
2023-06-09T05:02:26.999Z,6.20
2023-06-09T05:05:03.726Z,6.75
2023-06-09T05:07:32.952Z,6.47
2023-06-09T05:10:00.492Z,6.28
2023-06-09T05:12:27.630Z,5.35
2023-06-09T05:14:55.809Z,5.10
2023-06-09T05:17:22.858Z,6.10
2023-06-09T05:19:52.197Z,5.55
2023-06-09T05:22:19.344Z,5.15
2023-06-09T05:24:49.671Z,4.80
2023-06-09T05:27:16.741Z,5.10
2023-06-09T05:29:48.948Z,5.28
2023-06-09T05:32:17.805Z,5.20
2023-06-09T05:34:46.040Z,5.80
2023-06-09T05:37:16.776Z,5.57
2023-06-09T05:39:44.121Z,6.28
2023-06-09T05:42:11.828Z,5.97
2023-06-09T05:44:39.215Z,5.07
2023-06-09T05:47:06.669Z,4.68
2023-06-09T05:49:35.686Z,4.60
2023-06-09T05:52:03.992Z,4.45
2023-06-09T05:54:33.105Z,4.65
2023-06-09T05:57:00.597Z,4.93
2023-06-09T05:59:28.429Z,5.38
2023-06-09T06:01:55.698Z,5.63
2023-06-09T06:04:23.230Z,5.45
2023-06-09T06:06:50.175Z,5.68
2023-06-09T06:09:17.512Z,5.68
2023-06-09T06:11:46.746Z,4.97
2023-06-09T06:14:16.529Z,4.68
2023-06-09T06:16:43.497Z,4.38
2023-06-09T06:19:14.033Z,4.57
2023-06-09T06:21:43.486Z,4.90
2023-06-09T06:24:13.665Z,4.97
2023-06-09T06:26:40.831Z,5.07
2023-06-09T06:29:10.249Z,5.22
2023-06-09T06:31:37.264Z,5.40
2023-06-09T06:34:07.346Z,5.22
2023-06-09T06:36:34.833Z,5.45
2023-06-09T06:39:02.279Z,5.78
2023-06-09T06:41:29.414Z,5.57
2023-06-09T06:43:56.611Z,5.05
2023-06-09T06:46:24.948Z,5.07
2023-06-09T06:51:19.152Z,5.03
2023-06-09T06:53:50.565Z,6.28
2023-06-09T06:56:17.717Z,5.38
2023-06-09T06:58:44.904Z,5.45
2023-06-09T07:01:12.071Z,4.82
2023-06-09T07:03:41.583Z,4.78
2023-06-09T07:06:09.804Z,4.70
2023-06-09T07:08:37.139Z,4.20
2023-06-09T07:11:04.424Z,4.60
2023-06-09T07:13:31.874Z,5.20
2023-06-09T07:16:01.481Z,3.58
2023-06-09T07:18:30.362Z,4.22
2023-06-09T07:20:58.968Z,4.10
2023-06-09T07:23:26.357Z,4.15
2023-06-09T07:25:53.724Z,3.60
2023-06-09T07:28:21.299Z,3.58
2023-06-09T07:30:48.760Z,3.83
2023-06-09T07:33:17.488Z,3.65
2023-06-09T07:35:44.579Z,3.88
2023-06-09T07:38:14.614Z,3.47
2023-06-09T07:40:41.677Z,4.18
2023-06-09T07:43:09.072Z,3.85
2023-06-09T07:45:36.252Z,3.95
2023-06-09T07:48:03.759Z,3.55
2023-06-09T07:50:31.592Z,3.90
2023-06-09T07:53:05.716Z,3.55
2023-06-09T07:58:01.735Z,3.30
2023-06-09T08:00:29.024Z,3.30
2023-06-09T08:03:01.861Z,3.40
2023-06-09T08:05:29.312Z,3.47
2023-06-09T08:07:56.734Z,3.38
2023-06-09T08:10:24.068Z,3.40
2023-06-09T08:12:53.147Z,3.40
2023-06-09T08:15:20.382Z,3.45
2023-06-09T08:17:50.043Z,3.22
2023-06-09T08:20:17.165Z,3.45
2023-06-09T08:22:44.660Z,3.20
2023-06-09T08:25:12.795Z,3.50
2023-06-09T08:27:40.141Z,3.47
2023-06-09T08:30:10.133Z,3.72
2023-06-09T08:32:37.928Z,4.20
2023-06-09T08:35:08.351Z,4.15
2023-06-09T08:37:37.810Z,3.53
2023-06-09T08:40:09.357Z,3.70
2023-06-09T08:42:38.769Z,3.50
2023-06-09T08:45:08.850Z,3.60
2023-06-09T08:47:39.098Z,3.60
2023-06-09T08:50:09.194Z,3.08
2023-06-09T08:52:37.933Z,3.15
2023-06-09T08:55:06.206Z,3.33
2023-06-09T08:57:34.313Z,3.15
2023-06-09T09:00:08.163Z,3.42
2023-06-09T09:02:37.242Z,3.53
2023-06-09T09:05:05.319Z,3.55
2023-06-09T09:10:00.682Z,3.58
2023-06-09T09:12:47.905Z,3.28
2023-06-09T09:15:17.096Z,3.20
2023-06-09T09:17:49.160Z,2.75
2023-06-09T09:20:17.185Z,3.58
2023-06-09T09:22:50.083Z,2.95
2023-06-09T09:25:28.338Z,3.10
2023-06-09T09:28:06.379Z,2.92
2023-06-09T09:30:44.574Z,2.88
2023-06-09T09:33:15.050Z,3.00
2023-06-09T09:35:49.776Z,3.63
2023-06-09T09:38:18.918Z,3.20
2023-06-09T09:40:47.386Z,3.45
2023-06-09T09:43:15.237Z,2.85
2023-06-09T09:45:44.884Z,3.53
2023-06-09T09:48:15.499Z,3.63
2023-06-09T09:50:44.681Z,3.10
2023-06-09T09:53:13.368Z,2.83
2023-06-09T09:55:43.575Z,3.40
2023-06-09T09:58:11.476Z,2.90
2023-06-09T10:00:40.726Z,3.00
2023-06-09T10:03:10.438Z,3.30
2023-06-09T10:05:40.686Z,3.70
2023-06-09T10:08:10.747Z,3.45
2023-06-09T10:10:39.463Z,3.00
2023-06-09T10:13:10.794Z,2.80
2023-06-09T10:15:42.693Z,3.53
2023-06-09T10:18:14.661Z,3.08
2023-06-09T10:20:46.936Z,3.63
2023-06-09T10:23:15.538Z,3.10
2023-06-09T10:28:15.944Z,2.95
2023-06-09T10:30:43.978Z,3.70
2023-06-09T10:33:15.997Z,3.00
2023-06-09T10:35:49.292Z,3.60
2023-06-09T10:38:26.413Z,3.83
2023-06-09T10:41:00.904Z,6.97
2023-06-09T10:43:59.710Z,5.43
2023-06-09T10:46:44.009Z,6.10
2023-06-09T10:49:37.531Z,5.55
2023-06-09T10:52:07.597Z,7.72
2023-06-09T10:54:36.987Z,6.80
2023-06-09T10:57:06.277Z,4.10
2023-06-09T11:00:13.159Z,5.20
2023-06-09T11:02:41.891Z,3.50
2023-06-09T11:05:12.709Z,3.72
2023-06-09T11:07:44.778Z,4.72
2023-06-09T11:10:34.353Z,5.43
2023-06-09T11:13:02.019Z,4.72
2023-06-09T11:16:02.559Z,4.35
2023-06-09T11:18:31.281Z,4.95
2023-06-09T11:21:21.336Z,5.32
2023-06-09T11:24:04.383Z,5.13
2023-06-09T11:26:33.933Z,5.13
2023-06-09T11:29:01.853Z,4.50
2023-06-09T11:31:29.518Z,3.90
2023-06-09T11:33:57.395Z,4.95
2023-06-09T11:36:28.308Z,4.10
2023-06-09T11:39:06.030Z,4.00
2023-06-09T11:41:34.595Z,4.38
2023-06-09T11:44:01.815Z,3.72
2023-06-09T11:46:29.642Z,3.28
2023-06-09T11:49:04.894Z,3.97
2023-06-09T11:52:08.019Z,7.40
2023-06-09T11:54:47.113Z,6.07
2023-06-09T11:57:16.947Z,5.97
2023-06-09T11:59:46.783Z,5.95
2023-06-09T12:02:17.244Z,6.30
2023-06-09T12:04:44.443Z,5.75
2023-06-09T12:07:13.396Z,6.28
2023-06-09T12:09:41.671Z,6.43
2023-06-09T12:12:11.846Z,6.45
2023-06-09T12:14:41.947Z,7.28
2023-06-09T12:17:10.927Z,6.97
2023-06-09T12:19:38.085Z,8.32
2023-06-09T12:22:08.165Z,8.05
2023-06-09T12:24:35.462Z,7.75
2023-06-09T12:27:22.780Z,6.75
2023-06-09T12:29:49.785Z,6.38
2023-06-09T12:32:24.364Z,6.10
2023-06-09T12:34:59.474Z,6.40
2023-06-09T12:37:31.455Z,8.27
2023-06-09T12:40:05.816Z,6.75
2023-06-09T12:42:47.819Z,5.95
2023-06-09T12:45:16.052Z,6.07
2023-06-09T12:47:48.331Z,6.75
2023-06-09T12:50:15.835Z,7.25
2023-06-09T12:52:44.388Z,7.30
2023-06-09T12:55:16.241Z,6.85
2023-06-09T12:57:45.375Z,6.80
2023-06-09T13:00:21.876Z,6.82
2023-06-09T13:02:51.719Z,7.20
2023-06-09T13:05:21.689Z,7.38
2023-06-09T13:07:49.063Z,7.45
2023-06-09T13:10:16.160Z,8.45
2023-06-09T13:12:44.787Z,8.82
2023-06-09T13:15:11.839Z,9.27
2023-06-09T13:17:39.105Z,8.10
2023-06-09T13:20:07.583Z,8.35
2023-06-09T13:22:35.128Z,7.55
2023-06-09T13:25:02.245Z,6.25
2023-06-09T13:27:29.660Z,6.63
2023-06-09T13:29:58.253Z,6.20
2023-06-09T13:32:26.281Z,4.90
2023-06-09T13:34:53.414Z,4.75
2023-06-09T13:37:20.695Z,5.05
2023-06-09T13:39:47.799Z,6.00
2023-06-09T13:42:15.700Z,4.32
2023-06-09T13:44:42.905Z,5.40
2023-06-09T13:47:12.588Z,6.28
2023-06-09T13:49:39.796Z,6.65
2023-06-09T13:52:07.757Z,6.82
2023-06-09T13:54:34.781Z,7.05
2023-06-09T13:57:02.258Z,6.88
2023-06-09T13:59:29.130Z,6.80
2023-06-09T14:01:56.532Z,5.65
2023-06-09T14:04:25.376Z,5.70
2023-06-09T14:06:52.847Z,5.60
2023-06-09T14:09:20.006Z,5.68
2023-06-09T14:11:47.605Z,5.15
2023-06-09T14:14:15.900Z,5.40
2023-06-09T14:19:10.872Z,5.23
2023-06-09T14:21:39.482Z,5.80
2023-06-09T14:24:09.864Z,5.53
2023-06-09T14:26:37.380Z,5.90
2023-06-09T14:29:04.447Z,5.80
2023-06-09T14:31:31.924Z,5.47
2023-06-09T14:33:59.350Z,4.97
2023-06-09T14:36:26.611Z,5.38
2023-06-09T14:38:54.977Z,5.10
2023-06-09T14:41:22.784Z,4.80
2023-06-09T14:43:49.866Z,5.03
2023-06-09T14:46:17.351Z,4.30
2023-06-09T14:48:46.456Z,4.30
2023-06-09T14:51:13.818Z,4.10
2023-06-09T14:53:41.206Z,3.50
2023-06-09T14:56:09.872Z,3.60
2023-06-09T14:58:36.888Z,3.70
2023-06-09T15:01:04.304Z,3.58
2023-06-09T15:03:31.953Z,3.63
2023-06-09T15:05:59.595Z,3.45
2023-06-09T15:08:26.821Z,4.15
2023-06-09T15:10:54.092Z,3.63
2023-06-09T15:13:22.584Z,3.50
2023-06-09T15:15:49.970Z,4.03
2023-06-09T15:18:17.748Z,3.95
2023-06-09T15:20:45.586Z,3.40
2023-06-09T15:23:13.767Z,3.60
2023-06-09T15:28:13.452Z,3.50
2023-06-09T15:30:44.395Z,2.85
2023-06-09T15:33:12.640Z,3.10
2023-06-09T15:35:42.963Z,3.00
2023-06-09T15:38:11.429Z,3.53
2023-06-09T15:43:06.825Z,3.88
2023-06-09T15:45:38.260Z,2.83
2023-06-09T15:48:07.522Z,2.90
2023-06-09T15:50:38.764Z,3.00
2023-06-09T15:53:08.201Z,3.05
2023-06-09T15:55:36.109Z,3.08
2023-06-09T15:58:05.498Z,2.92
2023-06-09T16:00:33.977Z,3.20
2023-06-09T16:03:06.544Z,3.00
2023-06-09T16:05:38.012Z,3.03
2023-06-09T16:08:07.120Z,3.28
2023-06-09T16:10:35.944Z,2.90
2023-06-09T16:13:05.434Z,2.80
2023-06-09T16:15:34.873Z,3.05
2023-06-09T16:18:06.748Z,2.83
2023-06-09T16:20:38.741Z,2.78
2023-06-09T16:23:09.063Z,2.88
2023-06-09T16:25:36.412Z,3.08
2023-06-09T16:28:04.403Z,3.00
2023-06-09T16:30:37.246Z,2.97
2023-06-09T16:33:04.616Z,3.30
2023-06-09T16:35:37.141Z,3.22
2023-06-09T16:38:05.371Z,2.80
2023-06-09T16:43:00.134Z,3.38
2023-06-09T16:45:27.707Z,2.97
2023-06-09T16:47:56.704Z,3.20
2023-06-09T16:50:24.664Z,3.33
2023-06-09T16:52:55.797Z,3.20
2023-06-09T16:55:23.545Z,3.05
2023-06-09T16:57:50.975Z,3.40
2023-06-09T17:00:18.967Z,3.00
2023-06-09T17:02:46.488Z,3.08
2023-06-09T17:05:14.078Z,3.13
2023-06-09T17:07:41.332Z,3.05
2023-06-09T17:10:11.450Z,2.92
2023-06-09T17:12:38.936Z,3.25
2023-06-09T17:15:07.957Z,2.72
2023-06-09T17:17:35.424Z,2.88
2023-06-09T17:20:04.333Z,2.72
2023-06-09T17:24:58.534Z,2.90
2023-06-09T17:27:26.848Z,3.10
2023-06-09T17:32:21.130Z,3.28
2023-06-09T17:34:48.801Z,3.25
2023-06-09T17:37:16.102Z,3.20
2023-06-09T17:39:43.715Z,3.30
2023-06-09T17:42:11.923Z,3.03
2023-06-09T17:47:08.811Z,2.95
2023-06-09T17:49:36.651Z,3.22
2023-06-09T17:52:06.002Z,3.45
2023-06-09T17:54:37.331Z,3.58
2023-06-09T17:57:07.502Z,3.03
2023-06-09T17:59:35.260Z,3.17
2023-06-09T18:02:04.332Z,3.13
2023-06-09T18:04:31.971Z,3.42
2023-06-09T18:06:59.933Z,3.13
2023-06-09T18:09:28.230Z,4.32
2023-06-09T18:11:55.460Z,3.70
2023-06-09T18:14:23.607Z,4.20
2023-06-09T18:16:51.138Z,3.40
2023-06-09T18:19:23.741Z,3.20
2023-06-09T18:21:50.897Z,3.85
2023-06-09T18:24:19.312Z,3.13
2023-06-09T18:26:46.934Z,3.17
2023-06-09T18:29:15.284Z,3.50
2023-06-09T18:31:43.462Z,3.58
2023-06-09T18:34:12.263Z,3.42
2023-06-09T18:36:43.389Z,3.03
2023-06-09T18:39:11.456Z,3.13
2023-06-09T18:41:39.036Z,3.37
2023-06-09T18:44:18.571Z,2.90
2023-06-09T18:46:46.358Z,3.60
2023-06-09T18:49:17.458Z,3.20
2023-06-09T18:51:48.514Z,3.13
2023-06-09T18:54:20.686Z,3.40
2023-06-09T18:56:49.154Z,3.20
2023-06-09T18:59:18.914Z,3.42
2023-06-09T19:01:46.129Z,3.63
2023-06-09T19:04:14.198Z,4.05
2023-06-09T19:06:42.549Z,3.97
2023-06-09T19:16:38.179Z,3.58
2023-06-09T19:19:06.471Z,3.72
2023-06-09T19:21:35.188Z,3.60
2023-06-09T19:24:03.638Z,3.20
2023-06-09T19:26:32.876Z,3.10
2023-06-09T19:29:01.607Z,3.60
2023-06-09T19:34:03.594Z,3.70
2023-06-09T19:36:31.830Z,3.72
2023-06-09T19:39:01.656Z,3.75
2023-06-09T19:41:30.112Z,3.88
2023-06-09T19:44:02.123Z,3.67
2023-06-09T19:46:30.843Z,4.18
2023-06-09T19:49:01.209Z,4.47
2023-06-09T19:51:28.993Z,5.63
2023-06-09T19:53:58.157Z,5.32
2023-06-09T19:56:29.434Z,4.85
2023-06-09T19:59:02.893Z,5.25
2023-06-09T20:01:31.837Z,5.40
2023-06-09T20:04:00.373Z,4.80
2023-06-09T20:06:27.821Z,4.90
2023-06-09T20:08:55.564Z,4.97
2023-06-09T20:11:25.028Z,5.53
2023-06-09T20:13:53.940Z,5.55
2023-06-09T20:16:25.124Z,5.75
2023-06-09T20:18:54.436Z,5.20
2023-06-09T20:21:26.258Z,4.13
2023-06-09T20:23:54.877Z,4.30
2023-06-09T20:26:22.594Z,3.78
2023-06-09T20:28:51.152Z,4.20
2023-06-09T20:31:25.611Z,4.37
2023-06-09T20:33:57.959Z,4.40
2023-06-09T20:36:38.155Z,3.78
2023-06-09T20:39:13.923Z,4.25
2023-06-09T20:41:42.382Z,4.00
2023-06-09T20:44:11.846Z,4.05
2023-06-09T20:46:47.667Z,4.22
2023-06-09T20:49:16.843Z,4.38
2023-06-09T20:51:53.253Z,3.97
2023-06-09T20:54:20.647Z,4.15
2023-06-09T20:56:48.366Z,4.22
2023-06-09T20:59:18.562Z,4.03
2023-06-09T21:01:50.162Z,4.57
2023-06-09T21:04:21.240Z,4.10
2023-06-09T21:06:50.526Z,4.57
2023-06-09T21:09:18.652Z,4.35
2023-06-09T21:11:49.067Z,3.90
2023-06-09T21:14:21.878Z,4.22
2023-06-09T21:16:52.146Z,4.28
2023-06-09T21:19:23.667Z,4.72
2023-06-09T21:21:51.461Z,4.65
2023-06-09T21:24:19.346Z,4.50
2023-06-09T21:26:47.182Z,4.22
2023-06-09T21:29:14.616Z,4.20
2023-06-09T21:31:41.725Z,4.90
2023-06-09T21:34:09.081Z,4.05
2023-06-09T21:36:37.633Z,4.35
2023-06-09T21:39:04.945Z,4.72
2023-06-09T21:41:32.031Z,4.40
2023-06-09T21:43:59.579Z,4.38
2023-06-09T21:46:26.688Z,3.95
2023-06-09T21:48:54.331Z,4.13
2023-06-09T21:51:56.731Z,4.20
2023-06-09T21:54:24.332Z,3.90
2023-06-09T21:56:51.478Z,3.92
2023-06-09T21:59:18.837Z,4.35
2023-06-09T22:01:46.044Z,4.20
2023-06-09T22:04:13.706Z,3.90
2023-06-09T22:06:41.126Z,3.63
2023-06-09T22:09:09.891Z,3.95
2023-06-09T22:11:36.975Z,3.85
2023-06-09T22:14:04.835Z,3.72
2023-06-09T22:16:31.964Z,3.42
2023-06-09T22:18:59.266Z,4.38
2023-06-09T22:21:26.851Z,3.88
2023-06-09T22:23:54.170Z,4.30
2023-06-09T22:26:22.618Z,4.20
2023-06-09T22:31:18.122Z,3.50
2023-06-09T22:36:13.373Z,3.97
2023-06-09T22:38:40.772Z,4.18
2023-06-09T22:41:07.864Z,3.97
2023-06-09T22:43:36.501Z,3.70
2023-06-09T22:46:03.571Z,4.25
2023-06-09T22:48:32.084Z,4.00
2023-06-09T22:51:00.204Z,3.97
2023-06-09T22:53:28.642Z,4.57
2023-06-09T22:55:56.710Z,4.22
2023-06-09T22:58:24.219Z,5.28
2023-06-09T23:00:52.616Z,5.70
2023-06-09T23:03:20.032Z,5.68
2023-06-09T23:05:56.149Z,6.05
2023-06-09T23:08:27.927Z,6.45
2023-06-09T23:10:55.067Z,6.00
2023-06-09T23:13:22.489Z,5.82
2023-06-09T23:15:49.621Z,5.28
2023-06-09T23:18:18.266Z,4.43
2023-06-09T23:20:45.657Z,4.07
2023-06-09T23:23:15.866Z,4.10
2023-06-09T23:25:43.208Z,4.38
2023-06-09T23:28:10.533Z,3.78
2023-06-09T23:30:37.421Z,3.80
2023-06-09T23:33:04.927Z,3.92
2023-06-09T23:35:35.210Z,4.57
2023-06-09T23:38:02.595Z,4.60
2023-06-09T23:40:30.264Z,4.20
2023-06-09T23:42:57.584Z,4.20
2023-06-09T23:45:24.468Z,4.32
2023-06-09T23:47:51.798Z,3.92
2023-06-09T23:50:18.933Z,3.80
2023-06-09T23:52:48.116Z,4.15
2023-06-09T23:57:42.437Z,3.53
